Time,TemperatureF,DewpointF,PressureIn,WindDirection,WindDirectionDegrees,WindSpeedMPH,WindSpeedGustMPH,Humidity,HourlyPrecipIn,Conditions,Clouds,dailyrainin,SoftwareType,DateUTC
2013-02-12 00:00:00,44.6,8.1,28.79,SSE,158,0.0,12.3,22,0.00,,---,0.00,VWS V13.01,2013-02-12 05:00:00,
2013-02-12 00:01:00,44.6,8.1,28.79,SSE,158,0.0,12.3,22,0.00,,---,0.00,VWS V13.01,2013-02-12 05:01:00,
2013-02-12 00:13:00,44.6,8.1,28.79,SSE,158,0.0,0.0,22,0.00,,---,0.00,VWS V13.01,2013-02-12 05:13:00,
2013-02-12 00:14:00,44.6,8.1,28.79,NE,45,0.0,0.0,22,0.00,,---,0.00,VWS V13.01,2013-02-12 05:14:00,
2013-02-12 00:17:00,44.6,8.1,28.79,SE,135,0.0,0.0,22,0.00,,---,0.00,VWS V13.01,2013-02-12 05:17:00,
2013-02-12 00:22:00,44.2,8.8,28.79,ESE,112,0.0,0.0,23,0.00,,---,0.00,VWS V13.01,2013-02-12 05:22:00,
2013-02-12 00:27:00,44.2,8.8,28.79,South,180,0.0,0.0,23,0.00,,---,0.00,VWS V13.01,2013-02-12 05:27:00,
2013-02-12 00:32:00,44.2,8.8,28.79,North,0,0.0,0.0,23,0.00,,---,0.00,VWS V13.01,2013-02-12 05:32:00,
2013-02-12 00:37:00,44.2,8.8,28.79,SE,135,0.0,0.0,23,0.00,,---,0.00,VWS V13.01,2013-02-12 05:37:00,
2013-02-12 00:42:00,44.2,8.8,28.79,SSE,158,0.0,0.0,23,0.00,,---,0.00,VWS V13.01,2013-02-12 05:42:00,
2013-02-12 00:47:00,44.2,8.8,28.79,NW,315,0.0,0.0,23,0.00,,---,0.00,VWS V13.01,2013-02-12 05:47:00,
2013-02-12 00:52:00,44.1,8.6,28.79,South,180,0.0,0.0,23,0.00,,---,0.00,VWS V13.01,2013-02-12 05:52:00,
2013-02-12 00:57:00,44.1,8.6,28.79,SE,135,0.0,0.0,23,0.00,,---,0.00,VWS V13.01,2013-02-12 05:57:00,
2013-02-12 01:03:00,44.1,8.6,28.79,SE,135,0.0,0.0,23,0.00,,---,0.00,VWS V13.01,2013-02-12 06:03:00,
2013-02-12 01:08:00,44.1,8.6,28.79,South,180,0.0,0.0,23,0.00,,---,0.00,VWS V13.01,2013-02-12 06:08:00,
2013-02-12 01:13:00,43.9,8.5,28.79,South,180,0.0,0.0,23,0.00,,---,0.00,VWS V13.01,2013-02-12 06:13:00,
2013-02-12 01:18:00,44.1,8.6,28.79,South,180,0.0,0.0,23,0.00,,---,0.00,VWS V13.01,2013-02-12 06:18:00,
2013-02-12 01:23:00,43.7,8.3,28.79,East,90,0.0,0.0,23,0.00,,---,0.00,VWS V13.01,2013-02-12 06:23:00,
2013-02-12 01:28:00,43.7,8.3,28.76,SSW,202,0.0,0.0,23,0.00,,---,0.00,VWS V13.01,2013-02-12 06:28:00,
2013-02-12 01:33:00,43.7,8.3,28.76,SE,135,0.0,0.0,23,0.00,,---,0.00,VWS V13.01,2013-02-12 06:33:00,
2013-02-12 01:38:00,43.5,8.2,28.76,SE,135,0.0,0.0,23,0.00,,---,0.00,VWS V13.01,2013-02-12 06:38:00,
2013-02-12 01:43:00,43.3,8.0,28.76,SE,135,0.0,0.0,23,0.00,,---,0.00,VWS V13.01,2013-02-12 06:43:00,
2013-02-12 01:48:00,43.2,7.9,28.76,SE,135,0.0,0.0,23,0.00,,---,0.00,VWS V13.01,2013-02-12 06:48:00,
2013-02-12 01:53:00,43.0,7.7,28.76,SE,135,0.0,0.0,23,0.00,,---,0.00,VWS V13.01,2013-02-12 06:53:00,
2013-02-12 01:58:00,43.0,7.7,28.79,ESE,112,0.0,0.0,23,0.00,,---,0.00,VWS V13.01,2013-02-12 06:58:00,
2013-02-12 02:03:00,43.0,7.7,28.79,East,90,0.0,0.0,23,0.00,,---,0.00,VWS V13.01,2013-02-12 07:03:00,
2013-02-12 02:08:00,43.0,7.7,28.79,SE,135,0.0,0.0,23,0.00,,---,0.00,VWS V13.01,2013-02-12 07:08:00,
2013-02-12 02:14:00,42.8,7.6,28.79,NE,45,0.0,0.0,23,0.00,,---,0.00,VWS V13.01,2013-02-12 07:14:00,
2013-02-12 02:19:00,42.6,7.4,28.79,East,90,0.0,0.0,23,0.00,,---,0.00,VWS V13.01,2013-02-12 07:19:00,
2013-02-12 02:24:00,42.6,7.4,28.79,South,180,0.0,0.0,23,0.00,,---,0.00,VWS V13.01,2013-02-12 07:24:00,
2013-02-12 02:29:00,42.4,7.3,28.79,East,90,0.0,0.0,23,0.00,,---,0.00,VWS V13.01,2013-02-12 07:29:00,
2013-02-12 02:34:00,42.3,7.1,28.79,SE,135,0.0,0.0,23,0.00,,---,0.00,VWS V13.01,2013-02-12 07:34:00,
2013-02-12 02:39:00,42.1,7.0,28.79,SSE,158,0.0,0.0,23,0.00,,---,0.00,VWS V13.01,2013-02-12 07:39:00,
2013-02-12 02:44:00,42.1,7.0,28.79,SE,135,0.0,0.0,23,0.00,,---,0.00,VWS V13.01,2013-02-12 07:44:00,
2013-02-12 02:49:00,42.1,7.0,28.79,SE,135,0.0,0.0,23,0.00,,---,0.00,VWS V13.01,2013-02-12 07:49:00,
2013-02-12 02:54:00,41.9,6.8,28.79,SE,135,0.0,0.0,23,0.00,,---,0.00,VWS V13.01,2013-02-12 07:54:00,
2013-02-12 02:59:00,41.7,6.7,28.79,South,180,0.0,0.0,23,0.00,,---,0.00,VWS V13.01,2013-02-12 07:59:00,
2013-02-12 03:04:00,42.1,7.0,28.79,ESE,112,0.0,0.0,23,0.00,,---,0.00,VWS V13.01,2013-02-12 08:04:00,
2013-02-12 03:09:00,41.9,6.8,28.79,South,180,0.0,0.0,23,0.00,,---,0.00,VWS V13.01,2013-02-12 08:09:00,
2013-02-12 03:15:00,42.1,7.0,28.79,SE,135,0.0,0.0,23,0.00,,---,0.00,VWS V13.01,2013-02-12 08:15:00,
2013-02-12 03:20:00,42.3,7.1,28.79,South,180,0.0,0.0,23,0.00,,---,0.00,VWS V13.01,2013-02-12 08:20:00,
2013-02-12 03:25:00,42.3,7.1,28.79,SE,135,0.0,0.0,23,0.00,,---,0.00,VWS V13.01,2013-02-12 08:25:00,
2013-02-12 03:30:00,42.3,7.1,28.76,SE,135,0.0,0.0,23,0.00,,---,0.00,VWS V13.01,2013-02-12 08:30:00,
2013-02-12 03:35:00,42.3,7.1,28.76,SSE,158,0.0,0.0,23,0.00,,---,0.00,VWS V13.01,2013-02-12 08:35:00,
2013-02-12 03:40:00,42.3,7.1,28.76,South,180,0.0,0.0,23,0.00,,---,0.00,VWS V13.01,2013-02-12 08:40:00,
2013-02-12 03:45:00,41.7,6.7,28.76,East,90,0.0,0.0,23,0.00,,---,0.00,VWS V13.01,2013-02-12 08:45:00,
2013-02-12 03:50:00,41.9,6.8,28.76,South,180,0.0,0.0,23,0.00,,---,0.00,VWS V13.01,2013-02-12 08:50:00,
2013-02-12 03:55:00,41.5,6.5,28.76,East,90,0.0,0.0,23,0.00,,---,0.00,VWS V13.01,2013-02-12 08:55:00,
2013-02-12 04:00:00,41.2,6.2,28.76,South,180,0.0,0.0,23,0.00,,---,0.00,VWS V13.01,2013-02-12 09:00:00,
2013-02-12 04:05:00,41.2,6.2,28.76,SE,135,0.0,0.0,23,0.00,,---,0.00,VWS V13.01,2013-02-12 09:05:00,
2013-02-12 04:10:00,41.5,6.5,28.76,ENE,68,0.0,0.0,23,0.00,,---,0.00,VWS V13.01,2013-02-12 09:10:00,
2013-02-12 04:15:00,41.4,6.4,28.76,South,180,0.0,0.0,23,0.00,,---,0.00,VWS V13.01,2013-02-12 09:15:00,
2013-02-12 04:20:00,41.2,6.2,28.76,SE,135,0.0,0.0,23,0.00,,---,0.00,VWS V13.01,2013-02-12 09:20:00,
2013-02-12 04:25:00,41.2,6.2,28.76,East,90,0.0,0.0,23,0.00,,---,0.00,VWS V13.01,2013-02-12 09:25:00,
2013-02-12 04:30:00,41.0,6.1,28.76,South,180,0.0,0.0,23,0.00,,---,0.00,VWS V13.01,2013-02-12 09:30:00,
2013-02-12 04:36:00,40.8,5.9,28.76,South,180,0.0,0.0,23,0.00,,---,0.00,VWS V13.01,2013-02-12 09:36:00,
2013-02-12 04:41:00,41.0,6.1,28.79,ESE,112,0.0,0.0,23,0.00,,---,0.00,VWS V13.01,2013-02-12 09:41:00,
2013-02-12 04:46:00,41.0,6.1,28.79,East,90,0.0,0.0,23,0.00,,---,0.00,VWS V13.01,2013-02-12 09:46:00,
2013-02-12 04:51:00,41.0,6.1,28.79,SE,135,0.0,0.0,23,0.00,,---,0.00,VWS V13.01,2013-02-12 09:51:00,
2013-02-12 04:56:00,40.8,5.9,28.76,ENE,68,0.0,0.0,23,0.00,,---,0.00,VWS V13.01,2013-02-12 09:56:00,
2013-02-12 05:01:00,40.8,5.9,28.76,SE,135,0.0,0.0,23,0.00,,---,0.00,VWS V13.01,2013-02-12 10:01:00,
2013-02-12 05:06:00,40.6,5.8,28.76,SE,135,0.0,0.0,23,0.00,,---,0.00,VWS V13.01,2013-02-12 10:06:00,
2013-02-12 05:11:00,40.8,5.9,28.79,SE,135,0.0,0.0,23,0.00,,---,0.00,VWS V13.01,2013-02-12 10:11:00,
2013-02-12 05:16:00,40.1,5.3,28.79,NE,45,0.0,0.0,23,0.00,,---,0.00,VWS V13.01,2013-02-12 10:16:00,
2013-02-12 05:21:00,40.5,5.6,28.79,SE,135,0.0,0.0,23,0.00,,---,0.00,VWS V13.01,2013-02-12 10:21:00,
2013-02-12 05:27:00,40.1,5.3,28.79,SE,135,0.0,0.0,23,0.00,,---,0.00,VWS V13.01,2013-02-12 10:27:00,
2013-02-12 05:32:00,40.3,5.4,28.79,SE,135,0.0,0.0,23,0.00,,---,0.00,VWS V13.01,2013-02-12 10:32:00,
2013-02-12 05:37:00,40.5,5.6,28.79,NW,315,0.0,0.0,23,0.00,,---,0.00,VWS V13.01,2013-02-12 10:37:00,
2013-02-12 05:42:00,40.5,5.6,28.76,SE,135,4.9,4.9,23,0.00,,---,0.00,VWS V13.01,2013-02-12 10:42:00,
2013-02-12 05:47:00,39.9,5.1,28.76,SSE,158,4.5,8.7,23,0.00,,---,0.00,VWS V13.01,2013-02-12 10:47:00,
2013-02-12 05:52:00,39.9,5.1,28.76,East,90,0.0,8.7,23,0.00,,---,0.00,VWS V13.01,2013-02-12 10:52:00,
2013-02-12 05:57:00,39.6,4.8,28.79,East,90,4.0,8.7,23,0.00,,---,0.00,VWS V13.01,2013-02-12 10:57:00,
2013-02-12 06:02:00,39.4,4.7,28.79,South,180,0.0,8.3,23,0.00,,---,0.00,VWS V13.01,2013-02-12 11:02:00,
2013-02-12 06:07:00,39.7,5.0,28.79,ESE,112,3.6,8.3,23,0.00,,---,0.00,VWS V13.01,2013-02-12 11:07:00,
2013-02-12 06:13:00,39.9,5.1,28.79,East,90,7.6,10.1,23,0.00,,---,0.00,VWS V13.01,2013-02-12 11:13:00,
2013-02-12 06:18:00,39.9,5.1,28.79,SE,135,4.9,10.1,23,0.00,,---,0.00,VWS V13.01,2013-02-12 11:18:00,
2013-02-12 06:23:00,39.7,5.0,28.79,ESE,112,4.9,5.4,23,0.00,,---,0.00,VWS V13.01,2013-02-12 11:23:00,
2013-02-12 06:28:00,39.9,5.1,28.79,SE,135,6.3,10.5,23,0.00,,---,0.00,VWS V13.01,2013-02-12 11:28:00,
2013-02-12 06:33:00,39.4,4.7,28.79,East,90,3.1,10.5,23,0.00,,---,0.00,VWS V13.01,2013-02-12 11:33:00,
2013-02-12 06:38:00,39.6,4.8,28.79,East,90,8.7,10.5,23,0.00,,---,0.00,VWS V13.01,2013-02-12 11:38:00,
2013-02-12 06:43:00,39.7,5.0,28.79,South,180,3.6,3.6,23,0.00,,---,0.00,VWS V13.01,2013-02-12 11:43:00,
2013-02-12 06:48:00,39.4,4.7,28.79,ENE,68,2.7,4.9,23,0.00,,---,0.00,VWS V13.01,2013-02-12 11:48:00,
2013-02-12 06:53:00,39.0,5.3,28.79,SE,135,0.0,6.3,24,0.00,,---,0.00,VWS V13.01,2013-02-12 11:53:00,
2013-02-12 06:58:00,38.5,4.8,28.79,NNE,22,2.7,6.7,24,0.00,,---,0.00,VWS V13.01,2013-02-12 11:58:00,
2013-02-12 07:03:00,38.7,5.0,28.79,SE,135,5.4,5.4,24,0.00,,---,0.00,VWS V13.01,2013-02-12 12:03:00,
2013-02-12 07:08:00,38.5,4.8,28.79,SE,135,3.6,8.1,24,0.00,,---,0.00,VWS V13.01,2013-02-12 12:08:00,
2013-02-12 07:13:00,38.8,5.2,28.82,SE,135,3.1,8.1,24,0.00,,---,0.00,VWS V13.01,2013-02-12 12:13:00,
2013-02-12 07:18:00,38.7,5.0,28.82,ENE,68,0.0,8.1,24,0.00,,---,0.00,VWS V13.01,2013-02-12 12:18:00,
2013-02-12 07:24:00,38.3,4.7,28.82,ESE,112,0.0,0.0,24,0.00,,---,0.00,VWS V13.01,2013-02-12 12:24:00,
2013-02-12 07:29:00,37.8,4.2,28.85,ESE,112,0.0,0.0,24,0.00,,---,0.00,VWS V13.01,2013-02-12 12:29:00,
2013-02-12 07:34:00,37.9,4.4,28.85,SE,135,0.0,0.0,24,0.00,,---,0.00,VWS V13.01,2013-02-12 12:34:00,
2013-02-12 07:39:00,37.8,4.2,28.85,SE,135,0.0,0.0,24,0.00,,---,0.00,VWS V13.01,2013-02-12 12:39:00,
2013-02-12 07:44:00,37.9,4.4,28.85,SE,135,0.0,0.0,24,0.00,,---,0.00,VWS V13.01,2013-02-12 12:44:00,
2013-02-12 07:49:00,38.7,5.0,28.85,NW,315,0.0,0.0,24,0.00,,---,0.00,VWS V13.01,2013-02-12 12:49:00,
2013-02-12 07:54:00,38.8,5.2,28.85,SE,135,0.0,0.0,24,0.00,,---,0.00,VWS V13.01,2013-02-12 12:54:00,
2013-02-12 07:59:00,39.4,4.7,28.82,SE,135,0.0,0.0,23,0.00,,---,0.00,VWS V13.01,2013-02-12 12:59:00,
2013-02-12 08:04:00,39.6,4.8,28.82,SE,135,0.0,0.0,23,0.00,,---,0.00,VWS V13.01,2013-02-12 13:04:00,
2013-02-12 08:09:00,39.7,5.0,28.82,East,90,0.0,0.0,23,0.00,,---,0.00,VWS V13.01,2013-02-12 13:09:00,
2013-02-12 08:14:00,39.7,5.0,28.85,East,90,0.0,0.0,23,0.00,,---,0.00,VWS V13.01,2013-02-12 13:14:00,
2013-02-12 08:19:00,39.9,5.1,28.85,ESE,112,0.0,0.0,23,0.00,,---,0.00,VWS V13.01,2013-02-12 13:19:00,
2013-02-12 08:25:00,40.3,5.4,28.85,SE,135,0.0,0.0,23,0.00,,---,0.00,VWS V13.01,2013-02-12 13:25:00,
2013-02-12 08:30:00,40.3,5.4,28.85,East,90,0.0,0.0,23,0.00,,---,0.00,VWS V13.01,2013-02-12 13:30:00,
2013-02-12 08:35:00,40.3,5.4,28.85,SE,135,0.0,0.0,23,0.00,,---,0.00,VWS V13.01,2013-02-12 13:35:00,
2013-02-12 08:40:00,40.6,5.8,28.85,East,90,0.0,0.0,23,0.00,,---,0.00,VWS V13.01,2013-02-12 13:40:00,
2013-02-12 08:45:00,41.0,6.1,28.85,ENE,68,0.0,0.0,23,0.00,,---,0.00,VWS V13.01,2013-02-12 13:45:00,
2013-02-12 08:50:00,41.0,6.1,28.85,NE,45,0.0,0.0,23,0.00,,---,0.00,VWS V13.01,2013-02-12 13:50:00,
2013-02-12 08:55:00,41.0,6.1,28.85,ESE,112,0.0,0.0,23,0.00,,---,0.00,VWS V13.01,2013-02-12 13:55:00,
2013-02-12 09:00:00,41.0,6.1,28.85,SE,135,0.0,0.0,23,0.00,,---,0.00,VWS V13.01,2013-02-12 14:00:00,
2013-02-12 09:05:00,41.2,6.2,28.85,East,90,0.0,0.0,23,0.00,,---,0.00,VWS V13.01,2013-02-12 14:05:00,
2013-02-12 09:10:00,41.7,6.7,28.85,SE,135,0.0,0.0,23,0.00,,---,0.00,VWS V13.01,2013-02-12 14:10:00,
2013-02-12 09:15:00,41.9,6.8,28.88,East,90,0.0,0.0,23,0.00,,---,0.00,VWS V13.01,2013-02-12 14:15:00,
2013-02-12 09:20:00,42.1,7.0,28.88,NE,45,0.0,0.0,23,0.00,,---,0.00,VWS V13.01,2013-02-12 14:20:00,
2013-02-12 09:25:00,42.3,7.1,28.88,NE,45,0.0,0.0,23,0.00,,---,0.00,VWS V13.01,2013-02-12 14:25:00,
2013-02-12 09:30:00,42.4,7.3,28.88,SE,135,0.0,0.0,23,0.00,,---,0.00,VWS V13.01,2013-02-12 14:30:00,
2013-02-12 09:36:00,42.4,7.3,28.88,NW,315,0.0,0.0,23,0.00,,---,0.00,VWS V13.01,2013-02-12 14:36:00,
2013-02-12 09:41:00,43.3,8.0,28.88,North,0,0.0,0.0,23,0.00,,---,0.00,VWS V13.01,2013-02-12 14:41:00,
2013-02-12 09:46:00,43.2,7.9,28.88,NE,45,0.0,0.0,23,0.00,,---,0.00,VWS V13.01,2013-02-12 14:46:00,
2013-02-12 09:51:00,43.5,8.2,28.88,ENE,68,3.6,5.4,23,0.00,,---,0.00,VWS V13.01,2013-02-12 14:51:00,
2013-02-12 09:56:00,43.7,8.3,28.91,SE,135,0.0,6.3,23,0.00,,---,0.00,VWS V13.01,2013-02-12 14:56:00,
2013-02-12 10:01:00,44.1,8.6,28.91,South,180,2.2,6.3,23,0.00,,---,0.00,VWS V13.01,2013-02-12 15:01:00,
2013-02-12 10:06:00,44.4,8.9,28.91,NE,45,2.7,6.3,23,0.00,,---,0.00,VWS V13.01,2013-02-12 15:06:00,
2013-02-12 10:11:00,44.4,8.9,28.91,ENE,68,7.6,10.5,23,0.00,,---,0.00,VWS V13.01,2013-02-12 15:11:00,
2013-02-12 10:16:00,44.2,8.8,28.91,NE,45,7.6,10.5,23,0.00,,---,0.00,VWS V13.01,2013-02-12 15:16:00,
2013-02-12 10:21:00,43.5,5.1,28.91,NE,45,5.8,11.9,20,0.00,,---,0.00,VWS V13.01,2013-02-12 15:21:00,
2013-02-12 10:26:00,44.4,8.9,28.91,NE,45,8.3,10.1,23,0.00,,---,0.00,VWS V13.01,2013-02-12 15:26:00,
2013-02-12 10:32:00,45.0,8.4,28.91,ENE,68,0.0,10.1,22,0.00,,---,0.00,VWS V13.01,2013-02-12 15:32:00,
2013-02-12 10:37:00,45.1,8.6,28.91,NW,315,3.6,10.1,22,0.00,,---,0.00,VWS V13.01,2013-02-12 15:37:00,
2013-02-12 10:42:00,45.1,8.6,28.91,SE,135,9.6,9.6,22,0.00,,---,0.00,VWS V13.01,2013-02-12 15:42:00,
2013-02-12 10:47:00,45.1,8.6,28.91,East,90,10.1,12.8,22,0.00,,---,0.00,VWS V13.01,2013-02-12 15:47:00,
2013-02-12 10:52:00,46.2,9.5,28.91,SSE,158,5.8,12.8,22,0.00,,---,0.00,VWS V13.01,2013-02-12 15:52:00,
2013-02-12 10:57:00,46.2,9.5,28.91,NE,45,7.6,12.8,22,0.00,,---,0.00,VWS V13.01,2013-02-12 15:57:00,
2013-02-12 11:02:00,46.2,9.5,28.91,East,90,9.6,9.6,22,0.00,,---,0.00,VWS V13.01,2013-02-12 16:02:00,
2013-02-12 11:07:00,45.5,8.9,28.91,ESE,112,5.4,9.6,22,0.00,,---,0.00,VWS V13.01,2013-02-12 16:07:00,
2013-02-12 11:12:00,46.2,9.5,28.91,SE,135,5.8,9.6,22,0.00,,---,0.00,VWS V13.01,2013-02-12 16:12:00,
2013-02-12 11:17:00,46.0,7.2,28.91,NE,45,5.4,10.1,20,0.00,,---,0.00,VWS V13.01,2013-02-12 16:17:00,
2013-02-12 11:22:00,46.6,9.8,28.91,South,180,6.3,8.7,22,0.00,,---,0.00,VWS V13.01,2013-02-12 16:22:00,
2013-02-12 11:27:00,47.8,10.9,28.91,NE,45,4.9,8.7,22,0.00,,---,0.00,VWS V13.01,2013-02-12 16:27:00,
2013-02-12 11:32:00,48.2,10.1,28.91,ESE,112,2.7,8.7,21,0.00,,---,0.00,VWS V13.01,2013-02-12 16:32:00,
2013-02-12 11:37:00,48.7,10.6,28.91,South,180,3.1,8.7,21,0.00,,---,0.00,VWS V13.01,2013-02-12 16:37:00,
2013-02-12 11:42:00,48.2,10.1,28.91,North,0,3.6,4.0,21,0.00,,---,0.00,VWS V13.01,2013-02-12 16:42:00,
2013-02-12 11:48:00,47.7,10.7,28.91,SSE,158,3.1,9.6,22,0.00,,---,0.00,VWS V13.01,2013-02-12 16:48:00,
2013-02-12 11:53:00,47.3,7.1,28.91,South,180,7.2,10.1,19,0.00,,---,0.00,VWS V13.01,2013-02-12 16:53:00,
2013-02-12 11:58:00,48.0,11.0,28.91,South,180,4.0,10.1,22,0.00,,---,0.00,VWS V13.01,2013-02-12 16:58:00,
2013-02-12 12:03:00,47.7,7.4,28.91,NE,45,5.4,8.7,19,0.00,,---,0.00,VWS V13.01,2013-02-12 17:03:00,
2013-02-12 12:08:00,47.5,7.3,28.91,West,270,3.6,8.7,19,0.00,,---,0.00,VWS V13.01,2013-02-12 17:08:00,
2013-02-12 12:13:00,47.5,7.3,28.91,WSW,248,3.1,8.7,19,0.00,,---,0.00,VWS V13.01,2013-02-12 17:13:00,
2013-02-12 12:18:00,49.5,11.2,28.91,SSE,158,3.1,8.7,21,0.00,,---,0.00,VWS V13.01,2013-02-12 17:18:00,
2013-02-12 12:24:00,50.0,11.6,28.91,South,180,0.0,10.5,21,0.00,,---,0.00,VWS V13.01,2013-02-12 17:24:00,
2013-02-12 12:29:00,49.1,10.9,28.94,North,0,11.0,11.0,21,0.00,,---,0.00,VWS V13.01,2013-02-12 17:29:00,
2013-02-12 12:34:00,48.6,10.4,28.94,NNE,22,2.7,11.0,21,0.00,,---,0.00,VWS V13.01,2013-02-12 17:34:00,
2013-02-12 12:39:00,49.6,11.3,28.94,South,180,3.1,11.0,21,0.00,,---,0.00,VWS V13.01,2013-02-12 17:39:00,
2013-02-12 12:44:00,49.8,11.5,28.91,South,180,8.3,10.1,21,0.00,,---,0.00,VWS V13.01,2013-02-12 17:44:00,
2013-02-12 12:49:00,50.2,11.8,28.91,South,180,9.2,11.0,21,0.00,,---,0.00,VWS V13.01,2013-02-12 17:49:00,
2013-02-12 12:54:00,50.0,11.6,28.91,East,90,3.6,11.0,21,0.00,,---,0.00,VWS V13.01,2013-02-12 17:54:00,
2013-02-12 12:59:00,50.9,12.4,28.88,SSE,158,5.4,11.0,21,0.00,,---,0.00,VWS V13.01,2013-02-12 17:59:00,
2013-02-12 13:04:00,51.1,12.5,28.88,WNW,292,3.6,5.4,21,0.00,,---,0.00,VWS V13.01,2013-02-12 18:04:00,
2013-02-12 13:09:00,51.4,12.8,28.88,North,0,0.0,5.4,21,0.00,,---,0.00,VWS V13.01,2013-02-12 18:09:00,
2013-02-12 13:15:00,51.4,12.8,28.88,SW,225,3.1,8.7,21,0.00,,---,0.00,VWS V13.01,2013-02-12 18:15:00,
2013-02-12 13:20:00,52.3,13.6,28.88,NW,315,2.7,8.7,21,0.00,,---,0.00,VWS V13.01,2013-02-12 18:20:00,
2013-02-12 13:25:00,50.7,12.2,28.85,NW,315,5.4,8.1,21,0.00,,---,0.00,VWS V13.01,2013-02-12 18:25:00,
2013-02-12 13:30:00,52.0,13.3,28.85,West,270,4.9,8.1,21,0.00,,---,0.00,VWS V13.01,2013-02-12 18:30:00,
2013-02-12 13:35:00,51.1,12.5,28.85,NW,315,5.4,8.1,21,0.00,,---,0.00,VWS V13.01,2013-02-12 18:35:00,
2013-02-12 13:40:00,52.7,13.9,28.88,North,0,4.0,8.1,21,0.00,,---,0.00,VWS V13.01,2013-02-12 18:40:00,
2013-02-12 13:45:00,54.1,14.0,28.88,North,0,0.0,4.9,20,0.00,,---,0.00,VWS V13.01,2013-02-12 18:45:00,
2013-02-12 13:50:00,54.3,14.1,28.88,South,180,0.0,6.3,20,0.00,,---,0.00,VWS V13.01,2013-02-12 18:50:00,
2013-02-12 13:55:00,54.5,14.3,28.88,West,270,3.6,6.3,20,0.00,,---,0.00,VWS V13.01,2013-02-12 18:55:00,
2013-02-12 14:00:00,54.5,14.3,28.88,SW,225,2.7,6.3,20,0.00,,---,0.00,VWS V13.01,2013-02-12 19:00:00,
2013-02-12 14:05:00,54.7,14.4,28.88,SW,225,0.0,3.1,20,0.00,,---,0.00,VWS V13.01,2013-02-12 19:05:00,
2013-02-12 14:10:00,54.3,14.1,28.85,North,0,2.7,5.8,20,0.00,,---,0.00,VWS V13.01,2013-02-12 19:10:00,
2013-02-12 14:15:00,55.0,14.7,28.85,North,0,3.6,5.8,20,0.00,,---,0.00,VWS V13.01,2013-02-12 19:15:00,
2013-02-12 14:21:00,56.1,15.6,28.85,North,0,2.7,5.8,20,0.00,,---,0.00,VWS V13.01,2013-02-12 19:21:00,
2013-02-12 14:26:00,56.1,15.6,28.82,North,0,4.9,5.8,20,0.00,,---,0.00,VWS V13.01,2013-02-12 19:26:00,
2013-02-12 14:31:00,54.7,14.4,28.82,North,0,0.0,5.8,20,0.00,,---,0.00,VWS V13.01,2013-02-12 19:31:00,
2013-02-12 14:36:00,54.5,14.3,28.82,NE,45,3.1,7.2,20,0.00,,---,0.00,VWS V13.01,2013-02-12 19:36:00,
2013-02-12 14:41:00,55.0,14.7,28.79,South,180,3.1,7.2,20,0.00,,---,0.00,VWS V13.01,2013-02-12 19:41:00,
2013-02-12 14:46:00,55.4,15.0,28.79,West,270,2.2,5.8,20,0.00,,---,0.00,VWS V13.01,2013-02-12 19:46:00,
2013-02-12 14:51:00,54.1,14.0,28.79,South,180,3.1,5.8,20,0.00,,---,0.00,VWS V13.01,2013-02-12 19:51:00,
2013-02-12 14:56:00,54.0,13.8,28.79,NE,45,5.8,5.8,20,0.00,,---,0.00,VWS V13.01,2013-02-12 19:56:00,
2013-02-12 15:01:00,53.8,13.7,28.79,NNW,338,3.6,7.2,20,0.00,,---,0.00,VWS V13.01,2013-02-12 20:01:00,
2013-02-12 15:06:00,52.2,13.4,28.79,NNE,22,3.1,8.1,21,0.00,,---,0.00,VWS V13.01,2013-02-12 20:06:00,
2013-02-12 15:11:00,53.1,14.2,28.85,South,180,3.6,8.1,21,0.00,,---,0.00,VWS V13.01,2013-02-12 20:11:00,
2013-02-12 15:16:00,52.9,10.6,28.85,SW,225,3.6,8.1,18,0.00,,---,0.00,VWS V13.01,2013-02-12 20:16:00,
2013-02-12 15:21:00,53.1,10.7,28.85,South,180,3.6,3.6,18,0.00,,---,0.00,VWS V13.01,2013-02-12 20:21:00,
2013-02-12 15:26:00,53.1,10.7,28.85,South,180,0.0,5.8,18,0.00,,---,0.00,VWS V13.01,2013-02-12 20:26:00,
2013-02-12 15:32:00,52.7,10.4,28.85,West,270,0.0,6.3,18,0.00,,---,0.00,VWS V13.01,2013-02-12 20:32:00,
2013-02-12 15:37:00,52.7,10.4,28.85,South,180,4.9,7.6,18,0.00,,---,0.00,VWS V13.01,2013-02-12 20:37:00,
2013-02-12 15:42:00,53.1,10.7,28.85,SW,225,6.3,6.3,18,0.00,,---,0.00,VWS V13.01,2013-02-12 20:42:00,
2013-02-12 15:47:00,52.7,10.4,28.85,NW,315,2.7,7.6,18,0.00,,---,0.00,VWS V13.01,2013-02-12 20:47:00,
2013-02-12 15:52:00,52.7,10.4,28.85,North,0,0.0,7.6,18,0.00,,---,0.00,VWS V13.01,2013-02-12 20:52:00,
2013-02-12 15:57:00,52.9,10.6,28.85,North,0,0.0,7.6,18,0.00,,---,0.00,VWS V13.01,2013-02-12 20:57:00,
2013-02-12 16:02:00,53.1,10.7,28.85,West,270,4.0,4.9,18,0.00,,---,0.00,VWS V13.01,2013-02-12 21:02:00,
2013-02-12 16:07:00,52.2,10.0,28.85,NW,315,4.0,5.8,18,0.00,,---,0.00,VWS V13.01,2013-02-12 21:07:00,
2013-02-12 16:12:00,52.0,9.8,28.88,West,270,2.7,5.8,18,0.00,,---,0.00,VWS V13.01,2013-02-12 21:12:00,
2013-02-12 16:17:00,52.0,9.8,28.88,NW,315,5.4,5.8,18,0.00,,---,0.00,VWS V13.01,2013-02-12 21:17:00,
2013-02-12 16:23:00,52.0,9.8,28.88,South,180,6.3,6.3,18,0.00,,---,0.00,VWS V13.01,2013-02-12 21:23:00,
2013-02-12 16:28:00,52.5,10.2,28.88,SSE,158,2.2,10.1,18,0.00,,---,0.00,VWS V13.01,2013-02-12 21:28:00,
2013-02-12 16:33:00,52.5,10.2,28.88,North,0,0.0,10.1,18,0.00,,---,0.00,VWS V13.01,2013-02-12 21:33:00,
2013-02-12 16:38:00,52.3,10.1,28.88,SW,225,3.6,10.1,18,0.00,,---,0.00,VWS V13.01,2013-02-12 21:38:00,
2013-02-12 16:43:00,51.6,10.7,28.88,SE,135,5.4,6.3,19,0.00,,---,0.00,VWS V13.01,2013-02-12 21:43:00,
2013-02-12 16:48:00,51.4,10.6,28.88,South,180,5.4,6.3,19,0.00,,---,0.00,VWS V13.01,2013-02-12 21:48:00,
2013-02-12 16:53:00,50.9,10.1,28.88,South,180,4.0,8.1,19,0.00,,---,0.00,VWS V13.01,2013-02-12 21:53:00,
2013-02-12 16:58:00,50.7,10.0,28.88,SE,135,3.6,8.1,19,0.00,,---,0.00,VWS V13.01,2013-02-12 21:58:00,
2013-02-12 17:03:00,50.2,9.5,28.88,SE,135,4.0,4.0,19,0.00,,---,0.00,VWS V13.01,2013-02-12 22:03:00,
2013-02-12 17:08:00,49.6,9.1,28.88,SE,135,4.9,4.9,19,0.00,,---,0.00,VWS V13.01,2013-02-12 22:08:00,
2013-02-12 17:13:00,49.3,8.8,28.88,West,270,3.1,5.8,19,0.00,,---,0.00,VWS V13.01,2013-02-12 22:13:00,
2013-02-12 17:19:00,48.9,8.5,28.88,SE,135,8.3,8.3,19,0.00,,---,0.00,VWS V13.01,2013-02-12 22:19:00,
2013-02-12 17:24:00,48.9,8.5,28.88,South,180,4.9,5.8,19,0.00,,---,0.00,VWS V13.01,2013-02-12 22:24:00,
2013-02-12 17:29:00,49.1,8.6,28.88,South,180,3.1,5.8,19,0.00,,---,0.00,VWS V13.01,2013-02-12 22:29:00,
2013-02-12 17:34:00,47.3,7.1,28.88,South,180,0.0,5.8,19,0.00,,---,0.00,VWS V13.01,2013-02-12 22:34:00,
2013-02-12 17:39:00,46.9,6.8,28.88,South,180,3.1,5.8,19,0.00,,---,0.00,VWS V13.01,2013-02-12 22:39:00,
2013-02-12 17:44:00,46.6,6.5,28.91,South,180,2.2,4.0,19,0.00,,---,0.00,VWS V13.01,2013-02-12 22:44:00,
2013-02-12 17:49:00,45.9,7.1,28.91,SW,225,0.0,4.0,20,0.00,,---,0.00,VWS V13.01,2013-02-12 22:49:00,
2013-02-12 17:54:00,44.8,6.2,28.91,SW,225,2.2,4.5,20,0.00,,---,0.00,VWS V13.01,2013-02-12 22:54:00,
2013-02-12 17:59:00,44.2,5.7,28.91,SW,225,0.0,4.5,20,0.00,,---,0.00,VWS V13.01,2013-02-12 22:59:00,
2013-02-12 18:04:00,43.5,5.1,28.91,SW,225,0.0,4.0,20,0.00,,---,0.00,VWS V13.01,2013-02-12 23:04:00,
2013-02-12 18:09:00,43.5,5.1,28.91,SW,225,0.0,4.0,20,0.00,,---,0.00,VWS V13.01,2013-02-12 23:09:00,
2013-02-12 18:14:00,43.0,4.7,28.91,SW,225,0.0,4.0,20,0.00,,---,0.00,VWS V13.01,2013-02-12 23:14:00,
2013-02-12 18:20:00,43.0,4.7,28.91,SW,225,0.0,4.0,20,0.00,,---,0.00,VWS V13.01,2013-02-12 23:20:00,
2013-02-12 18:25:00,42.4,5.3,28.91,South,180,0.0,0.0,21,0.00,,---,0.00,VWS V13.01,2013-02-12 23:25:00,
2013-02-12 18:30:00,42.3,5.1,28.91,SW,225,3.1,3.1,21,0.00,,---,0.00,VWS V13.01,2013-02-12 23:30:00,
2013-02-12 18:35:00,43.5,5.1,28.91,South,180,5.4,5.4,20,0.00,,---,0.00,VWS V13.01,2013-02-12 23:35:00,
2013-02-12 18:40:00,45.5,6.8,28.91,SSE,158,3.6,5.8,20,0.00,,---,0.00,VWS V13.01,2013-02-12 23:40:00,
2013-02-12 18:45:00,43.0,4.7,28.91,SSE,158,3.6,3.6,20,0.00,,---,0.00,VWS V13.01,2013-02-12 23:45:00,
2013-02-12 18:50:00,43.0,4.7,28.91,SSE,158,2.7,3.6,20,0.00,,---,0.00,VWS V13.01,2013-02-12 23:50:00,
2013-02-12 18:55:00,40.5,3.6,28.91,SSE,158,2.7,3.6,21,0.00,,---,0.00,VWS V13.01,2013-02-12 23:55:00,
2013-02-12 19:00:00,40.5,3.6,28.91,SSE,158,3.6,3.6,21,0.00,,---,0.00,VWS V13.01,2013-02-13 00:00:00,
2013-02-12 19:05:00,40.6,3.8,28.91,SSE,158,0.0,3.1,21,0.00,,---,0.00,VWS V13.01,2013-02-13 00:05:00,
2013-02-12 19:10:00,39.9,3.2,28.91,SSE,158,0.0,3.1,21,0.00,,---,0.00,VWS V13.01,2013-02-13 00:10:00,
2013-02-12 19:15:00,39.7,3.0,28.91,SSE,158,0.0,3.1,21,0.00,,---,0.00,VWS V13.01,2013-02-13 00:15:00,
2013-02-12 19:21:00,39.9,3.2,28.91,West,270,4.0,4.0,21,0.00,,---,0.00,VWS V13.01,2013-02-13 00:21:00,
2013-02-12 19:26:00,39.6,2.9,28.91,West,270,4.0,4.9,21,0.00,,---,0.00,VWS V13.01,2013-02-13 00:26:00,
2013-02-12 19:31:00,40.1,3.3,28.88,West,270,0.0,4.9,21,0.00,,---,0.00,VWS V13.01,2013-02-13 00:31:00,
2013-02-12 19:36:00,39.6,2.9,28.88,West,270,0.0,4.9,21,0.00,,---,0.00,VWS V13.01,2013-02-13 00:36:00,
2013-02-12 19:41:00,39.9,3.2,28.88,West,270,0.0,4.9,21,0.00,,---,0.00,VWS V13.01,2013-02-13 00:41:00,
2013-02-12 19:46:00,39.0,2.4,28.88,West,270,0.0,4.5,21,0.00,,---,0.00,VWS V13.01,2013-02-13 00:46:00,
2013-02-12 19:51:00,39.2,2.6,28.88,West,270,0.0,4.5,21,0.00,,---,0.00,VWS V13.01,2013-02-13 00:51:00,
2013-02-12 19:56:00,38.7,2.1,28.88,West,270,0.0,4.5,21,0.00,,---,0.00,VWS V13.01,2013-02-13 00:56:00,
2013-02-12 20:01:00,38.8,2.3,28.88,West,270,0.0,4.5,21,0.00,,---,0.00,VWS V13.01,2013-02-13 01:01:00,
2013-02-12 20:06:00,38.3,1.8,28.88,West,270,0.0,0.0,21,0.00,,---,0.00,VWS V13.01,2013-02-13 01:06:00,
2013-02-12 20:11:00,37.9,4.4,28.88,West,270,0.0,3.1,24,0.00,,---,0.00,VWS V13.01,2013-02-13 01:11:00,
2013-02-12 20:16:00,38.1,4.5,28.88,West,270,0.0,3.1,24,0.00,,---,0.00,VWS V13.01,2013-02-13 01:16:00,
2013-02-12 20:21:00,38.1,4.5,28.88,West,270,2.2,2.2,24,0.00,,---,0.00,VWS V13.01,2013-02-13 01:21:00,
2013-02-12 20:27:00,37.6,4.1,28.85,West,270,0.0,2.2,24,0.00,,---,0.00,VWS V13.01,2013-02-13 01:27:00,
2013-02-12 20:32:00,37.6,4.1,28.85,West,270,0.0,2.2,24,0.00,,---,0.00,VWS V13.01,2013-02-13 01:32:00,
2013-02-12 20:37:00,37.4,3.9,28.85,West,270,3.1,3.1,24,0.00,,---,0.00,VWS V13.01,2013-02-13 01:37:00,
2013-02-12 20:42:00,37.6,4.1,28.85,West,270,2.7,2.7,24,0.00,,---,0.00,VWS V13.01,2013-02-13 01:42:00,
2013-02-12 20:47:00,37.6,4.1,28.85,West,270,2.7,3.1,24,0.00,,---,0.00,VWS V13.01,2013-02-13 01:47:00,
2013-02-12 20:52:00,37.0,3.6,28.85,West,270,2.7,3.6,24,0.00,,---,0.00,VWS V13.01,2013-02-13 01:52:00,
2013-02-12 20:57:00,37.0,3.6,28.85,West,270,0.0,3.6,24,0.00,,---,0.00,VWS V13.01,2013-02-13 01:57:00,
2013-02-12 21:02:00,37.2,3.8,28.85,West,270,0.0,0.0,24,0.00,,---,0.00,VWS V13.01,2013-02-13 02:02:00,
2013-02-12 21:07:00,36.5,3.2,28.85,West,270,0.0,0.0,24,0.00,,---,0.00,VWS V13.01,2013-02-13 02:07:00,
2013-02-12 21:12:00,36.5,3.2,28.88,West,270,3.6,3.6,24,0.00,,---,0.00,VWS V13.01,2013-02-13 02:12:00,
2013-02-12 21:17:00,37.0,3.6,28.88,West,270,0.0,3.6,24,0.00,,---,0.00,VWS V13.01,2013-02-13 02:17:00,
2013-02-12 21:22:00,36.7,3.3,28.88,West,270,0.0,0.0,24,0.00,,---,0.00,VWS V13.01,2013-02-13 02:22:00,
2013-02-12 21:27:00,37.0,3.6,28.85,West,270,0.0,0.0,24,0.00,,---,0.00,VWS V13.01,2013-02-13 02:27:00,
2013-02-12 21:33:00,37.2,3.8,28.85,West,270,2.7,4.0,24,0.00,,---,0.00,VWS V13.01,2013-02-13 02:33:00,
2013-02-12 21:38:00,37.4,3.9,28.85,West,270,0.0,4.0,24,0.00,,---,0.00,VWS V13.01,2013-02-13 02:38:00,
2013-02-12 21:43:00,38.8,2.3,28.88,South,180,0.0,2.7,21,0.00,,---,0.00,VWS V13.01,2013-02-13 02:43:00,
2013-02-12 21:48:00,39.4,2.7,28.88,South,180,0.0,2.7,21,0.00,,---,0.00,VWS V13.01,2013-02-13 02:48:00,
2013-02-12 21:53:00,40.1,3.3,28.88,South,180,0.0,4.5,21,0.00,,---,0.00,VWS V13.01,2013-02-13 02:53:00,
2013-02-12 21:58:00,39.2,2.6,28.88,South,180,0.0,4.5,21,0.00,,---,0.00,VWS V13.01,2013-02-13 02:58:00,
2013-02-12 22:03:00,38.7,5.0,28.88,South,180,0.0,0.0,24,0.00,,---,0.00,VWS V13.01,2013-02-13 03:03:00,
2013-02-12 22:08:00,38.5,4.8,28.88,South,180,0.0,0.0,24,0.00,,---,0.00,VWS V13.01,2013-02-13 03:08:00,
2013-02-12 22:13:00,38.5,4.8,28.88,South,180,0.0,2.7,24,0.00,,---,0.00,VWS V13.01,2013-02-13 03:13:00,
2013-02-12 22:18:00,37.9,4.4,28.88,South,180,0.0,2.7,24,0.00,,---,0.00,VWS V13.01,2013-02-13 03:18:00,
2013-02-12 22:23:00,38.3,1.8,28.88,South,180,0.0,3.1,21,0.00,,---,0.00,VWS V13.01,2013-02-13 03:23:00,
2013-02-12 22:29:00,38.3,1.8,28.88,West,270,0.0,3.6,21,0.00,,---,0.00,VWS V13.01,2013-02-13 03:29:00,
2013-02-12 22:34:00,37.6,4.1,28.88,West,270,0.0,3.6,24,0.00,,---,0.00,VWS V13.01,2013-02-13 03:34:00,
2013-02-12 22:39:00,38.1,4.5,28.88,West,270,0.0,3.6,24,0.00,,---,0.00,VWS V13.01,2013-02-13 03:39:00,
2013-02-12 22:44:00,37.9,4.4,28.85,West,270,3.1,3.1,24,0.00,,---,0.00,VWS V13.01,2013-02-13 03:44:00,
2013-02-12 22:49:00,38.1,4.5,28.85,West,270,0.0,3.6,24,0.00,,---,0.00,VWS V13.01,2013-02-13 03:49:00,
2013-02-12 22:54:00,37.9,4.4,28.85,West,270,0.0,3.6,24,0.00,,---,0.00,VWS V13.01,2013-02-13 03:54:00,
2013-02-12 22:59:00,37.9,4.4,28.88,West,270,0.0,3.6,24,0.00,,---,0.00,VWS V13.01,2013-02-13 03:59:00,
2013-02-12 23:04:00,37.9,4.4,28.88,West,270,0.0,0.0,24,0.00,,---,0.00,VWS V13.01,2013-02-13 04:04:00,
2013-02-12 23:09:00,37.6,4.1,28.88,West,270,0.0,0.0,24,0.00,,---,0.00,VWS V13.01,2013-02-13 04:09:00,
2013-02-12 23:14:00,37.2,3.8,28.88,West,270,0.0,0.0,24,0.00,,---,0.00,VWS V13.01,2013-02-13 04:14:00,
2013-02-12 23:19:00,37.4,3.9,28.88,West,270,0.0,0.0,24,0.00,,---,0.00,VWS V13.01,2013-02-13 04:19:00,
2013-02-12 23:24:00,37.6,4.1,28.88,West,270,0.0,0.0,24,0.00,,---,0.00,VWS V13.01,2013-02-13 04:24:00,
2013-02-12 23:29:00,37.6,4.1,28.88,West,270,0.0,0.0,24,0.00,,---,0.00,VWS V13.01,2013-02-13 04:29:00,
2013-02-12 23:35:00,37.4,3.9,28.88,West,270,0.0,0.0,24,0.00,,---,0.00,VWS V13.01,2013-02-13 04:35:00,
2013-02-12 23:40:00,36.9,3.5,28.88,West,270,0.0,0.0,24,0.00,,---,0.00,VWS V13.01,2013-02-13 04:40:00,
2013-02-12 23:45:00,36.7,3.3,28.88,West,270,0.0,0.0,24,0.00,,---,0.00,VWS V13.01,2013-02-13 04:45:00,
2013-02-12 23:50:00,36.1,5.4,28.88,West,270,0.0,3.6,27,0.00,,---,0.00,VWS V13.01,2013-02-13 04:50:00,
2013-02-12 23:55:00,35.4,7.1,28.88,West,270,0.0,3.6,30,0.00,,---,0.00,VWS V13.01,2013-02-13 04:55:00,